Time;durP1;ratioP1;P1;durP2;ratioP2;P2;SDS_P1;SDS_P2;PMS_P1;PMS_P2;Temp;Humidity;BMP_temperature;BMP_pressure;BME280_temperature;BME280_humidity;BME280_pressure;Samples;Min_cycle;Max_cycle;Signal;HPM_P1;HPM_P2
2022/10/28 00:00:15;;;;;;;13.97;7.00;;;;;;;15.03;100.00;101645.53;5276924;28;20017;-70
2022/10/28 00:02:46;;;;;;;21.20;6.97;;;;;;;15.04;100.00;101652.53;5275617;28;20025;-70
2022/10/28 00:05:17;;;;;;;18.20;7.40;;;;;;;15.12;100.00;101652.84;5259634;28;20078;-71
2022/10/28 00:07:48;;;;;;;16.13;7.57;;;;;;;14.90;100.00;101656.06;5260832;28;20391;-73
2022/10/28 00:10:20;;;;;;;14.40;6.97;;;;;;;15.07;100.00;101654.09;5279667;28;20025;-73
2022/10/28 00:12:51;;;;;;;15.03;7.43;;;;;;;14.86;100.00;101652.78;5275796;28;20403;-73
2022/10/28 00:15:22;;;;;;;16.27;7.30;;;;;;;14.84;100.00;101641.47;5275814;28;20031;-73
2022/10/28 00:17:54;;;;;;;11.90;6.23;;;;;;;14.83;100.00;101660.03;5276110;28;20025;-73
2022/10/28 00:20:25;;;;;;;11.90;7.00;;;;;;;14.77;100.00;101650.69;5275425;28;20036;-73
2022/10/28 00:22:56;;;;;;;15.33;7.27;;;;;;;14.74;100.00;101646.50;5276269;28;20029;-73
2022/10/28 00:25:27;;;;;;;17.67;7.60;;;;;;;14.91;100.00;101647.19;5257614;28;20475;-73
2022/10/28 00:27:59;;;;;;;15.00;7.23;;;;;;;14.75;100.00;101653.44;5276473;28;20396;-73
2022/10/28 00:30:30;;;;;;;14.63;6.83;;;;;;;14.72;100.00;101642.25;5277243;28;20414;-73
2022/10/28 00:33:01;;;;;;;21.00;7.03;;;;;;;14.69;100.00;101642.44;5280211;28;20552;-73
2022/10/28 00:35:32;;;;;;;12.40;6.93;;;;;;;14.43;100.00;101643.19;5277270;28;20025;-73
2022/10/28 00:38:04;;;;;;;15.33;6.50;;;;;;;14.42;100.00;101630.94;5275978;28;20056;-73
2022/10/28 00:40:35;;;;;;;18.53;6.60;;;;;;;14.52;100.00;101642.59;5276392;28;20029;-73
2022/10/28 00:43:10;;;;;;;16.07;6.50;;;;;;;14.57;100.00;101644.09;5276104;28;20112;-73
2022/10/28 00:45:42;;;;;;;15.57;7.43;;;;;;;14.52;100.00;101641.75;5275242;28;20024;-73
2022/10/28 00:48:13;;;;;;;18.80;7.13;;;;;;;14.47;100.00;101636.75;5257721;28;20021;-73
2022/10/28 00:50:52;;;;;;;26.90;7.57;;;;;;;14.34;100.00;101635.84;5275275;28;20033;-73
2022/10/28 00:53:31;;;;;;;10.97;6.57;;;;;;;14.43;100.00;101631.78;5275769;28;20036;-73
2022/10/28 00:56:03;;;;;;;22.73;7.20;;;;;;;14.26;100.00;101620.53;5275416;28;20109;-73
2022/10/28 00:58:34;;;;;;;13.03;6.33;;;;;;;14.37;100.00;101625.13;5275753;28;20409;-73
2022/10/28 01:01:06;;;;;;;21.27;6.90;;;;;;;14.42;100.00;101622.22;5274519;28;20029;-74
2022/10/28 01:03:37;;;;;;;11.67;6.30;;;;;;;14.19;100.00;101620.06;5275689;28;20116;-74
2022/10/28 01:06:09;;;;;;;18.30;7.23;;;;;;;14.28;100.00;101608.09;5312606;22;20610;-72
2022/10/28 01:08:40;;;;;;;15.70;6.50;;;;;;;14.21;100.00;101598.88;5274266;28;20024;-73
2022/10/28 01:11:21;;;;;;;10.83;6.53;;;;;;;14.24;100.00;101607.44;5274253;28;20023;-73
2022/10/28 01:14:14;;;;;;;11.20;5.63;;;;;;;14.34;100.00;101602.47;5273959;28;20490;-73
2022/10/28 01:16:51;;;;;;;15.07;7.40;;;;;;;14.18;100.00;101607.00;5272684;28;20074;-73
2022/10/28 01:19:58;;;;;;;15.20;6.67;;;;;;;14.22;100.00;101609.34;5274191;28;20021;-73
2022/10/28 01:22:39;;;;;;;18.17;6.50;;;;;;;14.03;100.00;101604.41;5274389;28;20545;-72
2022/10/28 01:25:35;;;;;;;12.83;6.20;;;;;;;14.03;100.00;101593.88;5273625;28;20025;-73
2022/10/28 01:28:21;;;;;;;11.87;5.60;;;;;;;14.11;100.00;101607.38;5274168;28;20056;-72
2022/10/28 01:30:58;;;;;;;11.67;6.47;;;;;;;14.05;100.00;101606.94;5273000;28;20036;-73
2022/10/28 01:33:35;;;;;;;15.43;6.50;;;;;;;13.86;100.00;101603.66;5274131;28;20108;-72
2022/10/28 01:36:34;;;;;;;13.47;5.97;;;;;;;13.98;100.00;101595.94;5273220;28;20099;-72
2022/10/28 01:39:15;;;;;;;10.30;5.97;;;;;;;13.97;100.00;101595.09;5255244;28;20464;-73
2022/10/28 01:41:55;;;;;;;17.13;6.63;;;;;;;13.96;100.00;101596.03;5273901;28;20479;-73
2022/10/28 01:44:32;;;;;;;14.40;6.63;;;;;;;13.91;100.00;101592.84;5274276;28;20455;-72
2022/10/28 01:47:25;;;;;;;13.20;6.00;;;;;;;14.03;100.00;101586.78;5272806;28;20082;-72
2022/10/28 01:50:11;;;;;;;15.67;7.10;;;;;;;13.95;100.00;101590.84;5273767;28;20028;-72
2022/10/28 01:52:45;;;;;;;12.43;6.13;;;;;;;13.94;100.00;101590.03;5273092;28;20107;-73
2022/10/28 01:55:27;;;;;;;17.42;6.43;;;;;;;13.91;100.00;101588.41;5273955;28;20525;-73
2022/10/28 01:58:01;;;;;;;12.83;6.00;;;;;;;13.86;100.00;101592.28;5273413;28;20066;-73
2022/10/28 02:00:34;;;;;;;17.85;5.82;;;;;;;13.67;100.00;101582.88;5273027;28;20069;-73
2022/10/28 02:03:08;;;;;;;17.25;6.65;;;;;;;13.70;100.00;101587.94;5273551;28;20455;-73
2022/10/28 02:05:47;;;;;;;9.90;6.13;;;;;;;13.68;100.00;101592.47;5276687;28;20047;-73
2022/10/28 02:08:19;;;;;;;15.33;7.03;;;;;;;13.62;100.00;101596.31;5277069;28;20056;-73
2022/10/28 02:11:21;;;;;;;14.67;5.63;;;;;;;13.83;100.00;101587.19;5293591;28;20525;-73
2022/10/28 02:14:04;;;;;;;15.13;5.83;;;;;;;13.54;100.00;101583.63;5297958;28;20044;-73
2022/10/28 02:16:47;;;;;;;10.47;5.73;;;;;;;13.70;100.00;101581.84;5298164;28;20433;-73
2022/10/28 02:19:47;;;;;;;12.67;5.93;;;;;;;13.70;100.00;101590.56;5279923;28;20138;-73
2022/10/28 02:22:42;;;;;;;11.30;5.27;;;;;;;13.68;100.00;101592.47;5298110;28;20027;-73
2022/10/28 02:25:21;;;;;;;14.23;5.07;;;;;;;13.78;100.00;101587.47;5298382;28;20028;-73
2022/10/28 02:28:07;;;;;;;12.30;4.90;;;;;;;13.71;100.00;101584.38;5279813;28;20032;-73
2022/10/28 02:31:01;;;;;;;14.03;5.97;;;;;;;13.76;100.00;101577.03;5297541;28;20035;-73
2022/10/28 02:33:37;;;;;;;17.97;6.07;;;;;;;13.89;100.00;101586.81;5298227;28;20564;-73
2022/10/28 02:36:16;;;;;;;13.27;5.37;;;;;;;13.77;100.00;101565.56;5297693;28;20115;-73
2022/10/28 02:38:54;;;;;;;14.80;5.47;;;;;;;13.77;100.00;101573.47;5279957;28;20032;-73
2022/10/28 02:41:52;;;;;;;16.37;6.17;;;;;;;13.86;100.00;101573.84;5297610;28;20550;-73
2022/10/28 02:44:31;;;;;;;13.83;5.03;;;;;;;13.76;100.00;101571.78;5297780;28;20485;-73
2022/10/28 02:47:08;;;;;;;10.30;5.00;;;;;;;13.79;100.00;101576.84;5296639;28;20059;-74
2022/10/28 02:49:44;;;;;;;13.13;5.00;;;;;;;13.89;100.00;101578.94;5297280;28;20344;-74
2022/10/28 02:52:18;;;;;;;16.30;5.40;;;;;;;13.89;100.00;101571.84;5298054;28;20513;-73
2022/10/28 02:54:56;;;;;;;11.13;4.68;;;;;;;13.84;100.00;101570.47;5297700;28;20154;-73
2022/10/28 02:57:32;;;;;;;13.60;4.50;;;;;;;13.77;100.00;101570.84;5300152;28;20032;-73
2022/10/28 03:00:10;;;;;;;12.33;5.40;;;;;;;13.82;100.00;101560.03;5295039;28;20016;-73
2022/10/28 03:02:41;;;;;;;12.97;5.03;;;;;;;13.74;100.00;101565.75;5258567;28;20416;-73
2022/10/28 03:05:13;;;;;;;13.93;5.03;;;;;;;13.68;100.00;101563.53;5258115;28;20053;-74
2022/10/28 03:07:44;;;;;;;15.13;5.13;;;;;;;13.70;100.00;101561.63;5275762;28;20028;-74
2022/10/28 03:10:16;;;;;;;17.27;5.13;;;;;;;13.62;100.00;101567.38;5276376;28;20035;-74
2022/10/28 03:12:47;;;;;;;14.50;4.50;;;;;;;13.39;100.00;101561.69;5276219;28;20119;-74
2022/10/28 03:15:18;;;;;;;13.20;5.13;;;;;;;13.56;100.00;101559.88;5274652;28;20433;-74
2022/10/28 03:17:49;;;;;;;9.53;4.97;;;;;;;13.63;100.00;101555.06;5275946;28;20744;-74
2022/10/28 03:20:21;;;;;;;14.03;5.43;;;;;;;13.50;100.00;101566.31;5275725;28;20039;-73
2022/10/28 03:22:52;;;;;;;14.40;5.33;;;;;;;13.61;100.00;101565.69;5258275;28;20028;-73
2022/10/28 03:25:23;;;;;;;11.57;4.80;;;;;;;13.51;100.00;101565.34;5276397;28;20029;-74
2022/10/28 03:27:55;;;;;;;12.43;5.53;;;;;;;13.62;100.00;101563.88;5275303;28;20028;-74
2022/10/28 03:30:26;;;;;;;14.03;5.03;;;;;;;13.62;100.00;101569.16;5276308;28;20024;-74
2022/10/28 03:32:57;;;;;;;16.30;5.87;;;;;;;13.59;100.00;101569.34;5277049;28;20020;-73
2022/10/28 03:35:28;;;;;;;13.17;4.93;;;;;;;13.62;100.00;101558.63;5277155;28;20036;-73
2022/10/28 03:38:00;;;;;;;11.63;5.17;;;;;;;13.66;100.00;101566.25;5259269;28;20471;-73
2022/10/28 03:40:31;;;;;;;16.27;5.33;;;;;;;13.69;100.00;101565.19;5277009;28;20384;-73
2022/10/28 03:43:02;;;;;;;13.13;4.77;;;;;;;13.72;100.00;101565.00;5276850;28;20028;-73
2022/10/28 03:45:33;;;;;;;15.83;5.20;;;;;;;13.73;100.00;101556.19;5275824;28;20060;-73
2022/10/28 03:48:05;;;;;;;12.90;5.47;;;;;;;13.63;100.00;101557.69;5259561;28;20582;-74
2022/10/28 03:50:36;;;;;;;11.87;4.80;;;;;;;13.55;100.00;101532.69;5277043;28;20040;-73
2022/10/28 03:53:08;;;;;;;14.83;4.97;;;;;;;14.05;100.00;101556.88;5276281;28;20021;-72
2022/10/28 03:55:39;;;;;;;12.67;5.13;;;;;;;13.83;100.00;101555.59;5275141;28;20021;-73
2022/10/28 03:58:10;;;;;;;17.83;6.00;;;;;;;13.81;100.00;101557.50;5274695;28;20229;-72
2022/10/28 04:00:41;;;;;;;14.27;5.03;;;;;;;14.04;100.00;101561.31;5274540;28;20056;-73
2022/10/28 04:03:13;;;;;;;25.27;6.37;;;;;;;13.91;100.00;101554.16;5274090;28;20025;-73
2022/10/28 04:05:47;;;;;;;12.13;4.73;;;;;;;13.82;100.00;101556.53;5256194;28;20047;-73
2022/10/28 04:08:19;;;;;;;22.63;6.53;;;;;;;13.74;100.00;101557.88;5257532;28;20394;-73
2022/10/28 04:10:51;;;;;;;14.73;5.30;;;;;;;13.82;100.00;101553.91;5258192;28;20095;-73
2022/10/28 04:13:22;;;;;;;15.60;5.53;;;;;;;13.77;100.00;101546.31;5276782;28;20684;-73
2022/10/28 04:15:53;;;;;;;17.80;5.80;;;;;;;13.77;100.00;101559.47;5275167;28;20474;-72
2022/10/28 04:18:24;;;;;;;12.30;5.10;;;;;;;13.90;100.00;101565.66;5276542;28;20125;-73
2022/10/28 04:20:56;;;;;;;12.80;5.03;;;;;;;13.88;100.00;101570.16;5276769;28;20028;-70
2022/10/28 04:23:28;;;;;;;21.37;6.57;;;;;;;13.97;100.00;101557.38;5276586;28;20028;-70
2022/10/28 04:25:59;;;;;;;15.03;5.63;;;;;;;13.75;100.00;101563.97;5276197;28;20017;-70
2022/10/28 04:28:30;;;;;;;14.47;5.80;;;;;;;13.82;100.00;101567.06;5275951;28;20021;-70
2022/10/28 04:31:01;;;;;;;15.27;4.73;;;;;;;13.76;100.00;101565.66;5272503;28;20024;-72
2022/10/28 04:33:33;;;;;;;11.70;5.40;;;;;;;13.78;100.00;101559.38;5265913;28;20029;-72
2022/10/28 04:36:04;;;;;;;16.37;6.50;;;;;;;13.88;100.00;101567.53;5254305;28;20399;-72
2022/10/28 04:38:35;;;;;;;18.27;5.60;;;;;;;13.77;100.00;101551.56;5258726;28;20510;-72
2022/10/28 04:41:12;;;;;;;13.23;5.27;;;;;;;13.79;100.00;101561.06;5275667;28;20031;-72
2022/10/28 04:43:43;;;;;;;13.10;5.17;;;;;;;13.88;100.00;101559.63;5275884;28;20021;-73
2022/10/28 04:46:14;;;;;;;14.30;6.50;;;;;;;13.72;100.00;101556.28;5274983;28;20399;-72
2022/10/28 04:48:46;;;;;;;13.67;5.67;;;;;;;13.68;100.00;101558.25;5276429;28;20021;-72
2022/10/28 04:51:18;;;;;;;14.63;4.73;;;;;;;13.63;100.00;101549.81;5276655;28;20035;-72
2022/10/28 04:53:49;;;;;;;16.37;5.07;;;;;;;13.69;100.00;101562.56;5280759;28;20024;-72
2022/10/28 04:56:20;;;;;;;17.33;5.43;;;;;;;13.54;100.00;101546.78;5275902;28;20036;-72
2022/10/28 04:58:51;;;;;;;11.87;4.87;;;;;;;13.73;100.00;101553.56;5275369;28;20111;-72
2022/10/28 05:01:23;;;;;;;19.13;5.27;;;;;;;13.87;100.00;101559.75;5275463;28;20064;-72
2022/10/28 05:03:54;;;;;;;13.83;5.37;;;;;;;13.82;100.00;101544.25;5275930;28;20017;-72
2022/10/28 05:06:25;;;;;;;13.27;5.80;;;;;;;13.81;100.00;101552.22;5275487;28;20047;-72
2022/10/28 05:08:56;;;;;;;13.67;5.60;;;;;;;13.77;100.00;101552.41;5278024;28;20017;-72
2022/10/28 05:11:28;;;;;;;19.20;5.53;;;;;;;13.91;100.00;101558.63;5279027;28;20029;-72
2022/10/28 05:13:59;;;;;;;18.83;5.77;;;;;;;13.87;100.00;101550.06;5275724;28;20016;-72
2022/10/28 05:16:30;;;;;;;14.33;5.20;;;;;;;14.08;100.00;101557.53;5274656;28;20111;-72
2022/10/28 05:19:02;;;;;;;15.43;5.47;;;;;;;13.77;100.00;101562.09;5275026;28;20028;-72
2022/10/28 05:21:33;;;;;;;15.23;5.47;;;;;;;13.76;100.00;101563.88;5276020;28;20230;-72
2022/10/28 05:24:05;;;;;;;14.27;6.33;;;;;;;13.80;100.00;101556.66;5275246;28;20028;-72
2022/10/28 05:26:36;;;;;;;12.10;5.53;;;;;;;13.63;100.00;101552.44;5275234;28;20036;-72
2022/10/28 05:29:07;;;;;;;22.13;7.03;;;;;;;13.92;100.00;101549.75;5274765;28;20391;-73
2022/10/28 05:31:38;;;;;;;17.67;5.67;;;;;;;13.92;100.00;101549.75;5274617;28;20029;-72
2022/10/28 05:34:10;;;;;;;23.30;6.53;;;;;;;13.67;100.00;101538.13;5274605;28;20089;-72
2022/10/28 05:36:41;;;;;;;12.57;4.63;;;;;;;13.70;100.00;101539.72;5275061;28;20032;-72
2022/10/28 05:39:12;;;;;;;13.30;5.83;;;;;;;13.63;100.00;101548.00;5275078;28;20058;-73
2022/10/28 05:41:44;;;;;;;18.17;5.43;;;;;;;13.63;100.00;101545.34;5279542;28;20433;-71
2022/10/28 05:44:15;;;;;;;15.80;5.10;;;;;;;13.50;100.00;101545.25;5283467;28;20032;-72
2022/10/28 05:46:46;;;;;;;20.80;5.07;;;;;;;13.57;100.00;101542.25;5278896;28;20100;-71
2022/10/28 05:49:19;;;;;;;19.00;5.73;;;;;;;13.71;100.00;101555.44;5279714;28;20025;-71
2022/10/28 05:51:50;;;;;;;19.73;5.90;;;;;;;13.52;100.00;101537.28;5279134;28;20060;-71
2022/10/28 05:54:21;;;;;;;17.80;6.50;;;;;;;13.46;100.00;101533.22;5278883;28;20060;-70
2022/10/28 05:56:53;;;;;;;13.60;5.77;;;;;;;13.68;100.00;101545.09;5278851;28;20524;-72
2022/10/28 05:59:24;;;;;;;17.33;5.83;;;;;;;13.76;100.00;101532.28;5279097;28;20020;-71
2022/10/28 06:01:55;;;;;;;14.70;5.47;;;;;;;13.77;100.00;101546.31;5278145;28;20029;-72
2022/10/28 06:04:26;;;;;;;17.07;5.57;;;;;;;13.85;100.00;101545.81;5279217;28;20032;-71
2022/10/28 06:06:58;;;;;;;13.13;6.33;;;;;;;13.86;100.00;101547.53;5278009;28;20037;-71
2022/10/28 06:09:29;;;;;;;19.30;5.67;;;;;;;13.62;100.00;101538.41;5278265;28;20029;-75
2022/10/28 06:12:00;;;;;;;21.93;5.83;;;;;;;13.65;100.00;101546.13;5279403;28;20555;-74
2022/10/28 06:14:32;;;;;;;15.13;5.93;;;;;;;13.67;100.00;101551.28;5260464;28;20375;-75
2022/10/28 06:17:03;;;;;;;17.07;6.00;;;;;;;13.71;100.00;101539.63;5279532;28;20070;-73
2022/10/28 06:19:34;;;;;;;16.43;5.77;;;;;;;13.82;100.00;101557.41;5279348;28;20060;-72
2022/10/28 06:22:06;;;;;;;20.17;6.23;;;;;;;13.89;100.00;101552.59;5278421;28;20027;-72
2022/10/28 06:24:37;;;;;;;19.13;5.93;;;;;;;13.85;100.00;101558.97;5278592;28;20116;-72
2022/10/28 06:27:08;;;;;;;20.50;6.80;;;;;;;13.90;100.00;101559.53;5279295;28;20033;-73
2022/10/28 06:29:40;;;;;;;14.10;5.80;;;;;;;13.86;100.00;101556.25;5260543;28;20926;-73
2022/10/28 06:32:11;;;;;;;15.27;5.50;;;;;;;13.85;100.00;101559.84;5278569;28;20209;-72
2022/10/28 06:34:42;;;;;;;15.67;6.03;;;;;;;13.70;100.00;101558.97;5277930;28;20037;-72
2022/10/28 06:37:14;;;;;;;17.50;6.47;;;;;;;13.89;100.00;101552.59;5278434;28;20028;-73
2022/10/28 06:39:50;;;;;;;18.63;5.80;;;;;;;13.93;100.00;101551.44;5279534;28;20471;-74
2022/10/28 06:42:21;;;;;;;16.97;6.70;;;;;;;13.85;100.00;101536.13;5277849;28;20044;-74
2022/10/28 06:44:53;;;;;;;22.90;6.87;;;;;;;13.89;100.00;101549.97;5260897;28;20036;-74
2022/10/28 06:47:24;;;;;;;15.40;6.30;;;;;;;13.95;100.00;101549.56;5280942;28;20029;-74
2022/10/28 06:49:56;;;;;;;15.30;6.13;;;;;;;13.89;100.00;101555.22;5276310;28;20039;-74
2022/10/28 06:52:27;;;;;;;17.40;6.50;;;;;;;13.90;100.00;101555.13;5280731;28;20154;-73
2022/10/28 06:54:58;;;;;;;15.83;6.40;;;;;;;13.94;100.00;101557.56;5279581;28;20094;-74
2022/10/28 06:57:29;;;;;;;16.83;5.93;;;;;;;14.06;100.00;101545.41;5277702;28;20025;-73
2022/10/28 07:00:01;;;;;;;17.17;6.27;;;;;;;13.93;100.00;101551.44;5278271;28;20074;-74
2022/10/28 07:02:32;;;;;;;15.03;6.23;;;;;;;14.05;100.00;101556.88;5273389;28;20063;-73
2022/10/28 07:05:04;;;;;;;14.00;5.77;;;;;;;14.08;100.00;101552.28;5284043;28;20028;-73
2022/10/28 07:07:36;;;;;;;17.13;7.00;;;;;;;14.14;100.00;101558.91;5295532;28;20020;-74
2022/10/28 07:10:07;;;;;;;19.27;5.97;;;;;;;14.14;100.00;101545.75;5279183;28;20036;-73
2022/10/28 07:12:38;;;;;;;23.83;6.37;;;;;;;14.11;100.00;101538.06;5267818;28;20542;-74
2022/10/28 07:15:10;;;;;;;19.17;6.10;;;;;;;14.25;100.00;101551.19;5296710;28;20060;-73
2022/10/28 07:17:41;;;;;;;18.53;6.50;;;;;;;14.37;100.00;101553.97;5276120;28;20036;-73
2022/10/28 07:20:12;;;;;;;17.40;6.37;;;;;;;14.34;100.00;101547.13;5276625;28;20020;-73
2022/10/28 07:22:43;;;;;;;18.60;6.37;;;;;;;14.41;100.00;101552.84;5258230;28;20024;-73
2022/10/28 07:25:15;;;;;;;16.63;5.77;;;;;;;14.49;100.00;101558.44;5277647;28;20074;-73
2022/10/28 07:27:46;;;;;;;18.87;6.57;;;;;;;14.58;100.00;101553.50;5258022;28;20036;-74
2022/10/28 07:30:17;;;;;;;12.00;6.73;;;;;;;14.70;100.00;101565.03;5277103;28;20032;-73
2022/10/28 07:32:48;;;;;;;17.30;6.43;;;;;;;14.86;100.00;101575.44;5277675;28;20039;-74
2022/10/28 07:35:20;;;;;;;25.27;7.20;;;;;;;14.87;100.00;101577.97;5277032;28;20120;-74
2022/10/28 07:37:51;;;;;;;19.97;7.00;;;;;;;14.90;100.00;101576.94;5276537;28;20040;-73
2022/10/28 07:40:24;;;;;;;22.57;6.83;;;;;;;15.06;100.00;101578.56;5276960;28;20459;-73
2022/10/28 07:42:57;;;;;;;18.00;6.57;;;;;;;15.17;100.00;101572.56;5276616;28;20043;-73
2022/10/28 07:45:28;;;;;;;16.83;5.63;;;;;;;15.12;100.00;101567.56;5258111;28;20433;-73
2022/10/28 07:48:00;;;;;;;17.87;5.70;;;;;;;15.35;100.00;101565.16;5276483;28;20036;-73
2022/10/28 07:50:31;;;;;;;18.27;6.10;;;;;;;15.47;100.00;101561.69;5276901;28;20017;-73
2022/10/28 07:53:02;;;;;;;14.93;5.27;;;;;;;15.48;100.00;101558.06;5276864;28;20032;-74
2022/10/28 07:55:34;;;;;;;16.80;6.17;;;;;;;15.67;100.00;101543.59;5258797;28;20031;-73
2022/10/28 07:58:05;;;;;;;20.90;7.50;;;;;;;15.69;100.00;101546.97;5276110;28;20033;-72
2022/10/28 08:00:36;;;;;;;16.27;6.17;;;;;;;15.88;100.00;101548.31;5257075;28;20024;-74
2022/10/28 08:03:07;;;;;;;13.23;5.53;;;;;;;15.79;100.00;101541.03;5273298;28;20031;-74
2022/10/28 08:05:39;;;;;;;20.73;7.67;;;;;;;16.03;100.00;101548.19;5276153;28;20044;-73
2022/10/28 08:08:10;;;;;;;21.03;6.47;;;;;;;16.01;100.00;101555.38;5278141;28;20036;-74
2022/10/28 08:10:41;;;;;;;12.83;5.23;;;;;;;16.21;100.00;101554.75;5280354;28;20017;-73
2022/10/28 08:13:12;;;;;;;19.73;5.07;;;;;;;16.38;100.00;101559.78;5275350;28;20535;-74
2022/10/28 08:15:51;;;;;;;16.83;5.57;;;;;;;16.35;100.00;101567.94;5257981;28;20486;-73
2022/10/28 08:18:22;;;;;;;13.47;6.13;;;;;;;16.42;100.00;101577.13;5274941;28;20029;-73
2022/10/28 08:20:53;;;;;;;19.67;6.37;;;;;;;16.48;100.00;101589.88;5276457;28;20024;-74
2022/10/28 08:23:25;;;;;;;14.17;5.20;;;;;;;16.60;100.00;101587.28;5258963;28;20219;-73
2022/10/28 08:25:57;;;;;;;25.70;6.43;;;;;;;16.61;100.00;101589.81;5275284;28;20081;-74
2022/10/28 08:28:28;;;;;;;13.77;6.17;;;;;;;16.67;100.00;101585.84;5276995;28;20043;-74
2022/10/28 08:31:01;;;;;;;14.03;5.73;;;;;;;16.59;100.00;101586.44;5274495;28;20498;-74
2022/10/28 08:33:32;;;;;;;17.03;5.97;;;;;;;16.73;100.00;101582.78;5276419;28;20127;-74
2022/10/28 08:36:05;;;;;;;18.57;5.50;;;;;;;16.71;100.00;101589.97;5276201;28;20108;-74
2022/10/28 08:38:36;;;;;;;14.40;4.93;;;;;;;16.74;100.00;101581.81;5276130;28;20025;-74
2022/10/28 08:41:30;;;;;;;20.80;5.40;;;;;;;16.88;100.00;101594.00;5276857;28;20035;-74
2022/10/28 08:44:37;;;;;;;13.50;5.87;;;;;;;16.91;100.00;101591.13;5275248;28;20033;-74
2022/10/28 08:47:19;;;;;;;24.30;6.23;;;;;;;16.97;100.00;101573.09;5275537;28;20029;-74
2022/10/28 08:49:57;;;;;;;13.13;4.57;;;;;;;17.05;100.00;101571.56;5275840;28;20102;-74
2022/10/28 08:52:44;;;;;;;20.23;5.80;;;;;;;17.19;100.00;101563.56;5247393;28;20058;-73
2022/10/28 08:55:22;;;;;;;32.20;7.93;;;;;;;17.38;100.00;101569.13;5276096;28;20029;-74
2022/10/28 08:58:11;;;;;;;18.57;6.37;;;;;;;17.53;100.00;101576.81;5275213;28;20056;-73
2022/10/28 09:00:47;;;;;;;21.63;5.93;;;;;;;17.64;100.00;101576.84;5274551;28;20054;-74
2022/10/28 09:03:27;;;;;;;16.27;5.30;;;;;;;17.96;100.00;101574.41;5275570;28;20032;-74
2022/10/28 09:06:04;;;;;;;14.70;5.30;;;;;;;18.19;100.00;101579.66;5275466;28;20044;-74
2022/10/28 09:08:39;;;;;;;17.73;4.90;;;;;;;18.42;100.00;101576.94;5274696;28;20062;-73
2022/10/28 09:11:20;;;;;;;13.50;4.97;;;;;;;18.64;100.00;101589.28;5257647;28;20039;-74
2022/10/28 09:14:13;;;;;;;13.37;5.53;;;;;;;18.86;100.00;101593.66;5272526;28;20127;-74
2022/10/28 09:16:46;;;;;;;16.73;6.23;;;;;;;19.23;100.00;101594.19;5274559;28;20124;-74
2022/10/28 09:19:42;;;;;;;18.07;5.67;;;;;;;19.97;100.00;101590.59;5275235;28;20032;-73
2022/10/28 09:22:31;;;;;;;18.33;4.95;;;;;;;20.14;100.00;101591.78;5273578;28;20564;-74
2022/10/28 09:25:22;;;;;;;14.02;4.47;;;;;;;20.46;100.00;101596.00;5255181;28;20530;-74
2022/10/28 09:28:05;;;;;;;17.58;4.88;;;;;;;20.68;100.00;101594.06;5275083;28;20035;-73
2022/10/28 09:30:57;;;;;;;13.73;4.68;;;;;;;20.73;100.00;101591.81;5274667;28;20131;-73
2022/10/28 09:33:46;;;;;;;18.67;5.45;;;;;;;20.56;100.00;101596.00;5275011;28;20173;-73
2022/10/28 09:36:26;;;;;;;17.92;5.13;;;;;;;20.38;100.00;101601.19;5272595;28;20121;-74
2022/10/28 09:39:00;;;;;;;18.92;5.53;;;;;;;20.07;100.00;101594.97;5239552;28;20112;-74
2022/10/28 09:41:38;;;;;;;18.35;4.50;;;;;;;19.94;100.00;101597.84;5275956;28;20032;-73
2022/10/28 09:44:17;;;;;;;13.27;5.22;;;;;;;19.92;100.00;101599.78;5272917;28;20152;-72
2022/10/28 09:46:52;;;;;;;15.45;4.85;;;;;;;19.95;100.00;101598.66;5275140;28;20379;-73
2022/10/28 09:49:28;;;;;;;23.50;5.95;;;;;;;20.06;100.00;101603.06;5278837;28;20025;-73
2022/10/28 09:52:07;;;;;;;12.63;4.95;;;;;;;20.18;100.00;101606.44;5258731;28;20020;-74
2022/10/28 09:54:46;;;;;;;14.43;4.28;;;;;;;20.15;100.00;101610.25;5248469;28;20033;-73
2022/10/28 09:57:19;;;;;;;16.10;4.72;;;;;;;20.18;100.00;101603.78;5275812;28;20466;-73
2022/10/28 09:59:51;;;;;;;20.02;4.70;;;;;;;20.23;100.00;101603.41;5274610;28;20033;-72
2022/10/28 10:02:34;;;;;;;13.70;4.93;;;;;;;20.26;100.00;101601.31;5277620;28;20083;-72
2022/10/28 10:05:11;;;;;;;15.25;3.97;;;;;;;20.31;100.00;101604.41;5274715;28;20074;-72
2022/10/28 10:07:56;;;;;;;17.85;4.93;;;;;;;20.38;100.00;101601.19;5275363;28;20020;-74
2022/10/28 10:10:38;;;;;;;17.23;4.95;;;;;;;20.41;100.00;101603.56;5275008;28;20581;-72
2022/10/28 10:13:12;;;;;;;22.40;5.68;;;;;;;20.49;100.00;101598.38;5275002;28;20032;-72
2022/10/28 10:15:44;;;;;;;15.27;4.38;;;;;;;;;;5256300;28;20032;-73
2022/10/28 10:18:21;;;;;;;15.20;4.68;;;;;;;20.47;100.00;101608.34;5274806;28;20024;-73
2022/10/28 10:20:57;;;;;;;12.43;4.28;;;;;;;20.46;100.00;101606.63;5275079;28;20460;-73
2022/10/28 10:23:31;;;;;;;16.10;4.50;;;;;;;20.56;100.00;101606.66;5275813;28;20036;-72
2022/10/28 10:26:05;;;;;;;11.43;4.50;;;;;;;20.64;100.00;101611.28;5276819;28;20024;-73
2022/10/28 10:28:47;;;;;;;16.55;4.60;;;;;;;20.67;100.00;101589.69;5261954;28;20025;-73
2022/10/28 10:31:25;;;;;;;16.70;4.60;;;;;;;20.84;100.00;101587.31;5278451;28;20043;-73
2022/10/28 10:33:57;;;;;;;15.52;4.60;;;;;;;20.85;100.00;101597.81;5278314;28;20032;-73
2022/10/28 10:36:30;;;;;;;18.35;4.95;;;;;;;20.88;100.00;101599.34;5279178;28;20086;-73
2022/10/28 10:39:02;;;;;;;16.67;4.90;;;;;;;20.93;100.00;101591.75;5258695;28;20021;-72
2022/10/28 10:41:38;;;;;;;16.33;5.57;;;;;;;20.90;100.00;101597.38;5284130;28;20043;-73
2022/10/28 10:44:21;;;;;;;15.98;5.53;;;;;;;21.03;100.00;101587.28;5296093;28;20024;-73
2022/10/28 10:46:58;;;;;;;12.87;4.40;;;;;;;21.01;100.00;101580.44;5278607;28;20025;-74
2022/10/28 10:49:30;;;;;;;12.75;4.80;;;;;;;21.13;100.00;101565.13;5278002;28;20042;-74
2022/10/28 10:52:08;;;;;;;17.40;5.75;;;;;;;21.17;100.00;101563.03;5278592;28;20040;-74
2022/10/28 10:54:47;;;;;;;19.02;5.00;;;;;;;21.18;100.00;101578.00;5278209;28;20032;-75
2022/10/28 10:57:21;;;;;;;18.05;4.50;;;;;;;21.29;100.00;101575.19;5277564;28;20109;-75
2022/10/28 10:59:54;;;;;;;15.52;4.57;;;;;;;21.33;100.00;101573.06;5275272;28;20037;-75
2022/10/28 11:02:34;;;;;;;18.77;4.95;;;;;;;21.39;100.00;101588.47;5277585;28;20471;-78
2022/10/28 11:05:08;;;;;;;17.70;4.30;;;;;;;21.37;100.00;101577.09;5276775;28;20025;-78
2022/10/28 11:07:47;;;;;;;18.33;4.70;;;;;;;21.36;100.00;101594.09;5278110;28;20033;-73
2022/10/28 11:10:24;;;;;;;17.80;5.32;;;;;;;21.46;100.00;101586.91;5278009;28;20111;-74
2022/10/28 11:13:03;;;;;;;13.70;4.45;;;;;;;21.49;100.00;101586.59;5276416;28;20059;-74
2022/10/28 11:15:34;;;;;;;17.15;4.72;;;;;;;21.51;100.00;101576.63;5276377;28;20059;-74
2022/10/28 11:18:19;;;;;;;16.80;4.43;;;;;;;21.44;100.00;101582.69;5278113;28;20028;-74
2022/10/28 11:21:09;;;;;;;14.15;4.78;;;;;;;21.45;100.00;101569.22;5277629;28;20036;-73
2022/10/28 11:23:48;;;;;;;22.02;4.50;;;;;;;21.41;100.00;101562.53;5278368;28;20029;-73
2022/10/28 11:26:22;;;;;;;17.65;5.30;;;;;;;21.33;100.00;101562.41;5277968;28;20112;-76
2022/10/28 11:29:02;;;;;;;14.52;4.43;;;;;;;21.45;100.00;101563.88;5278339;28;20109;-74
2022/10/28 11:32:05;;;;;;;19.08;4.40;;;;;;;21.53;100.00;101576.50;5281453;28;20025;-73
2022/10/28 11:34:48;;;;;;;15.13;4.35;;;;;;;21.52;98.92;101570.31;5278239;28;20036;-74
2022/10/28 11:37:33;;;;;;;14.23;4.10;;;;;;;21.57;100.00;101577.03;5278455;28;20036;-75
2022/10/28 11:40:09;;;;;;;16.23;5.55;;;;;;;21.56;100.00;101578.00;5277806;28;20352;-76
2022/10/28 11:43:07;;;;;;;16.15;4.50;;;;;;;21.58;100.00;101586.69;5277808;28;20045;-75
2022/10/28 11:45:57;;;;;;;16.63;5.40;;;;;;;21.61;100.00;101581.91;5256131;28;20037;-75